Terminal Aerodrome Forecast
Issued by NWS

Home | Current Version | Previous Version | Graphics & Text | Print | Product List | Glossary On
Versions: 1 2 3 4 5 6 7 8 9 10 11 12 13 14 15 16 17 18 19 20 21 22 23 24 25 26 27
000
FTUS43 KDVN 242044 AAG
TAFCID
TAF AMD
KCID 242044Z 2421/2518 34014G22KT 3SM -SN BR OVC012
     FM250400 32015G25KT 5SM -SN BR OVC015
     FM250700 32017G28KT 6SM BR OVC020=

USA.gov is the U.S. government's official web portal to all federal, state and local government web resources and services.